sensor_id;sensor_type;location;lat;lon;timestamp;P1;P2;P0
64861;PMS5003;62652;42.274;-71.436;2023-02-20T00:00:01;7.30;7.10;5.00
64861;PMS5003;62652;42.274;-71.436;2023-02-20T00:01:00;6.67;5.33;4.00
64861;PMS5003;62652;42.274;-71.436;2023-02-20T00:02:00;5.57;5.40;4.50
64861;PMS5003;62652;42.274;-71.436;2023-02-20T00:03:00;6.50;6.07;4.93
64861;PMS5003;62652;42.274;-71.436;2023-02-20T00:04:00;7.07;7.00;5.33
64861;PMS5003;62652;42.274;-71.436;2023-02-20T00:05:00;7.40;7.23;5.53
64861;PMS5003;62652;42.274;-71.436;2023-02-20T00:06:00;7.23;6.60;4.33
64861;PMS5003;62652;42.274;-71.436;2023-02-20T00:07:00;7.03;6.40;5.00
64861;PMS5003;62652;42.274;-71.436;2023-02-20T00:08:01;7.20;7.03;4.77
64861;PMS5003;62652;42.274;-71.436;2023-02-20T00:09:00;7.50;6.63;4.83
64861;PMS5003;62652;42.274;-71.436;2023-02-20T00:10:00;6.60;6.60;4.37
64861;PMS5003;62652;42.274;-71.436;2023-02-20T00:11:01;5.87;5.87;4.33
64861;PMS5003;62652;42.274;-71.436;2023-02-20T00:12:00;6.43;6.43;4.83
64861;PMS5003;62652;42.274;-71.436;2023-02-20T00:13:00;7.73;6.97;4.23
64861;PMS5003;62652;42.274;-71.436;2023-02-20T00:14:00;6.20;5.97;4.53
64861;PMS5003;62652;42.274;-71.436;2023-02-20T00:15:00;8.17;7.23;5.40
64861;PMS5003;62652;42.274;-71.436;2023-02-20T00:16:00;6.43;6.33;4.07
64861;PMS5003;62652;42.274;-71.436;2023-02-20T00:17:00;6.97;6.17;4.43
64861;PMS5003;62652;42.274;-71.436;2023-02-20T00:18:00;6.17;5.63;4.40
64861;PMS5003;62652;42.274;-71.436;2023-02-20T00:19:00;6.87;6.23;4.23
64861;PMS5003;62652;42.274;-71.436;2023-02-20T00:20:02;7.13;6.73;4.73
64861;PMS5003;62652;42.274;-71.436;2023-02-20T00:21:00;7.07;6.70;4.70
64861;PMS5003;62652;42.274;-71.436;2023-02-20T00:22:01;7.20;7.10;5.63
64861;PMS5003;62652;42.274;-71.436;2023-02-20T00:23:00;7.50;6.73;5.57
64861;PMS5003;62652;42.274;-71.436;2023-02-20T00:24:00;9.00;7.93;5.10
64861;PMS5003;62652;42.274;-71.436;2023-02-20T00:25:00;8.83;7.70;5.10
64861;PMS5003;62652;42.274;-71.436;2023-02-20T00:26:00;7.57;7.17;5.63
64861;PMS5003;62652;42.274;-71.436;2023-02-20T00:27:00;6.53;6.33;5.43
64861;PMS5003;62652;42.274;-71.436;2023-02-20T00:28:00;8.07;7.53;5.50
64861;PMS5003;62652;42.274;-71.436;2023-02-20T00:29:00;7.50;7.50;5.03
64861;PMS5003;62652;42.274;-71.436;2023-02-20T00:30:00;8.43;7.53;5.30
64861;PMS5003;62652;42.274;-71.436;2023-02-20T00:31:00;8.07;6.87;5.00
64861;PMS5003;62652;42.274;-71.436;2023-02-20T00:32:00;7.30;6.97;5.40
64861;PMS5003;62652;42.274;-71.436;2023-02-20T00:33:01;8.30;8.30;6.30
64861;PMS5003;62652;42.274;-71.436;2023-02-20T00:34:00;7.60;7.00;5.00
64861;PMS5003;62652;42.274;-71.436;2023-02-20T00:35:00;8.43;7.43;5.43
64861;PMS5003;62652;42.274;-71.436;2023-02-20T00:36:00;9.00;8.73;6.43
64861;PMS5003;62652;42.274;-71.436;2023-02-20T00:37:00;9.43;9.17;6.83
64861;PMS5003;62652;42.274;-71.436;2023-02-20T00:38:00;8.37;7.77;6.27
64861;PMS5003;62652;42.274;-71.436;2023-02-20T00:39:00;8.57;6.77;5.30
64861;PMS5003;62652;42.274;-71.436;2023-02-20T00:40:00;7.63;6.90;5.13
64861;PMS5003;62652;42.274;-71.436;2023-02-20T00:41:00;8.50;7.90;6.20
64861;PMS5003;62652;42.274;-71.436;2023-02-20T00:42:01;8.07;8.07;5.83
64861;PMS5003;62652;42.274;-71.436;2023-02-20T00:43:00;9.17;7.97;5.40
64861;PMS5003;62652;42.274;-71.436;2023-02-20T00:44:01;7.47;7.10;5.37
64861;PMS5003;62652;42.274;-71.436;2023-02-20T00:45:00;9.50;8.90;6.47
64861;PMS5003;62652;42.274;-71.436;2023-02-20T00:46:00;7.30;7.13;5.63
64861;PMS5003;62652;42.274;-71.436;2023-02-20T00:47:00;9.57;9.30;5.77
64861;PMS5003;62652;42.274;-71.436;2023-02-20T00:48:00;7.57;6.87;4.23
64861;PMS5003;62652;42.274;-71.436;2023-02-20T00:49:00;10.30;9.83;6.97
64861;PMS5003;62652;42.274;-71.436;2023-02-20T00:50:00;8.73;8.17;5.77
64861;PMS5003;62652;42.274;-71.436;2023-02-20T00:51:00;8.30;7.77;6.73
64861;PMS5003;62652;42.274;-71.436;2023-02-20T00:52:00;7.37;7.37;4.90
64861;PMS5003;62652;42.274;-71.436;2023-02-20T00:53:00;10.43;9.47;6.10
64861;PMS5003;62652;42.274;-71.436;2023-02-20T00:54:00;unavailable;unavailable;unavailable
64861;PMS5003;62652;42.274;-71.436;2023-02-20T00:55:01;9.10;8.80;6.27
64861;PMS5003;62652;42.274;-71.436;2023-02-20T00:56:00;7.57;7.43;5.37
64861;PMS5003;62652;42.274;-71.436;2023-02-20T00:57:00;8.73;8.33;5.67
64861;PMS5003;62652;42.274;-71.436;2023-02-20T00:58:00;7.17;7.17;4.67
64861;PMS5003;62652;42.274;-71.436;2023-02-20T00:59:00;8.63;7.77;5.67
64861;PMS5003;62652;42.274;-71.436;2023-02-20T01:00:00;8.57;8.47;6.77
64861;PMS5003;62652;42.274;-71.436;2023-02-20T01:01:00;7.50;7.50;5.37
64861;PMS5003;62652;42.274;-71.436;2023-02-20T01:02:00;8.73;7.93;5.93
64861;PMS5003;62652;42.274;-71.436;2023-02-20T01:03:00;7.70;7.57;5.27
64861;PMS5003;62652;42.274;-71.436;2023-02-20T01:04:00;7.70;7.30;6.00
64861;PMS5003;62652;42.274;-71.436;2023-02-20T01:05:00;10.03;8.27;6.07
64861;PMS5003;62652;42.274;-71.436;2023-02-20T01:06:01;8.70;8.00;5.90
64861;PMS5003;62652;42.274;-71.436;2023-02-20T01:07:00;7.87;7.87;5.80
64861;PMS5003;62652;42.274;-71.436;2023-02-20T01:08:00;9.87;8.73;6.90
64861;PMS5003;62652;42.274;-71.436;2023-02-20T01:09:00;10.13;9.73;5.97
64861;PMS5003;62652;42.274;-71.436;2023-02-20T01:10:00;8.30;8.20;6.07
64861;PMS5003;62652;42.274;-71.436;2023-02-20T01:11:00;9.40;8.87;6.77
64861;PMS5003;62652;42.274;-71.436;2023-02-20T01:12:00;8.70;8.27;6.67
64861;PMS5003;62652;42.274;-71.436;2023-02-20T01:13:00;8.43;8.43;6.00
64861;PMS5003;62652;42.274;-71.436;2023-02-20T01:14:00;9.07;8.00;5.80
64861;PMS5003;62652;42.274;-71.436;2023-02-20T01:15:00;9.53;8.90;6.00
64861;PMS5003;62652;42.274;-71.436;2023-02-20T01:16:00;9.63;7.57;4.70
64861;PMS5003;62652;42.274;-71.436;2023-02-20T01:17:01;9.77;9.47;6.17
64861;PMS5003;62652;42.274;-71.436;2023-02-20T01:18:00;9.23;8.83;6.13
64861;PMS5003;62652;42.274;-71.436;2023-02-20T01:19:00;10.10;9.43;6.10
64861;PMS5003;62652;42.274;-71.436;2023-02-20T01:20:00;8.27;7.90;6.10
64861;PMS5003;62652;42.274;-71.436;2023-02-20T01:21:00;8.97;8.97;6.00
64861;PMS5003;62652;42.274;-71.436;2023-02-20T01:22:00;7.53;7.53;5.53
64861;PMS5003;62652;42.274;-71.436;2023-02-20T01:23:00;8.80;8.57;6.50
64861;PMS5003;62652;42.274;-71.436;2023-02-20T01:24:00;8.00;8.00;6.00
64861;PMS5003;62652;42.274;-71.436;2023-02-20T01:25:00;8.37;7.93;5.60
64861;PMS5003;62652;42.274;-71.436;2023-02-20T01:26:00;7.57;7.20;5.70
64861;PMS5003;62652;42.274;-71.436;2023-02-20T01:27:00;10.20;9.30;6.73
64861;PMS5003;62652;42.274;-71.436;2023-02-20T01:28:01;8.03;7.63;5.60
64861;PMS5003;62652;42.274;-71.436;2023-02-20T01:29:00;9.40;8.97;6.10
64861;PMS5003;62652;42.274;-71.436;2023-02-20T01:30:00;6.93;6.93;5.67
64861;PMS5003;62652;42.274;-71.436;2023-02-20T01:31:00;9.90;7.47;4.87
64861;PMS5003;62652;42.274;-71.436;2023-02-20T01:32:00;8.57;8.03;6.50
64861;PMS5003;62652;42.274;-71.436;2023-02-20T01:33:00;10.70;9.23;5.93
64861;PMS5003;62652;42.274;-71.436;2023-02-20T01:34:00;9.17;8.27;5.93
64861;PMS5003;62652;42.274;-71.436;2023-02-20T01:35:00;7.80;7.17;5.60
64861;PMS5003;62652;42.274;-71.436;2023-02-20T01:36:00;7.80;7.13;5.50
64861;PMS5003;62652;42.274;-71.436;2023-02-20T01:37:00;8.47;7.87;5.40
64861;PMS5003;62652;42.274;-71.436;2023-02-20T01:38:01;8.33;7.60;6.00
64861;PMS5003;62652;42.274;-71.436;2023-02-20T01:41:01;7.57;7.07;5.60
64861;PMS5003;62652;42.274;-71.436;2023-02-20T01:42:01;8.63;8.27;6.63
64861;PMS5003;62652;42.274;-71.436;2023-02-20T01:43:00;8.37;8.37;5.67
64861;PMS5003;62652;42.274;-71.436;2023-02-20T01:44:00;8.00;7.90;5.80
64861;PMS5003;62652;42.274;-71.436;2023-02-20T01:47:01;7.13;7.13;5.13
64861;PMS5003;62652;42.274;-71.436;2023-02-20T01:48:00;10.23;9.47;6.43
64861;PMS5003;62652;42.274;-71.436;2023-02-20T01:49:01;10.37;10.20;6.23
64861;PMS5003;62652;42.274;-71.436;2023-02-20T01:50:01;8.40;7.67;5.70
64861;PMS5003;62652;42.274;-71.436;2023-02-20T01:51:00;9.13;8.73;6.73
64861;PMS5003;62652;42.274;-71.436;2023-02-20T01:52:02;9.47;8.97;6.10
64861;PMS5003;62652;42.274;-71.436;2023-02-20T01:53:02;8.53;8.50;6.93
64861;PMS5003;62652;42.274;-71.436;2023-02-20T01:54:00;8.30;7.83;6.10
64861;PMS5003;62652;42.274;-71.436;2023-02-20T01:55:02;8.63;8.33;5.60
64861;PMS5003;62652;42.274;-71.436;2023-02-20T01:56:02;8.10;7.70;5.47
64861;PMS5003;62652;42.274;-71.436;2023-02-20T01:57:01;9.90;9.70;6.73
64861;PMS5003;62652;42.274;-71.436;2023-02-20T01:58:02;10.93;10.53;5.90
64861;PMS5003;62652;42.274;-71.436;2023-02-20T01:59:00;7.03;6.47;4.47
64861;PMS5003;62652;42.274;-71.436;2023-02-20T02:01:00;7.13;6.53;5.63
64861;PMS5003;62652;42.274;-71.436;2023-02-20T02:05:01;9.43;7.57;5.47
64861;PMS5003;62652;42.274;-71.436;2023-02-20T02:06:02;8.40;7.83;5.63
64861;PMS5003;62652;42.274;-71.436;2023-02-20T02:07:00;7.47;7.10;5.23
64861;PMS5003;62652;42.274;-71.436;2023-02-20T02:08:01;7.93;7.27;5.10
64861;PMS5003;62652;42.274;-71.436;2023-02-20T02:09:02;10.53;8.43;5.63
64861;PMS5003;62652;42.274;-71.436;2023-02-20T02:10:01;7.83;7.07;5.00
64861;PMS5003;62652;42.274;-71.436;2023-02-20T02:11:01;7.47;6.90;5.37
64861;PMS5003;62652;42.274;-71.436;2023-02-20T02:12:00;7.87;7.47;5.37
64861;PMS5003;62652;42.274;-71.436;2023-02-20T02:13:00;7.43;6.93;5.43
64861;PMS5003;62652;42.274;-71.436;2023-02-20T02:14:00;8.53;7.37;5.17
64861;PMS5003;62652;42.274;-71.436;2023-02-20T02:15:00;7.23;7.23;5.37
64861;PMS5003;62652;42.274;-71.436;2023-02-20T02:16:05;8.70;7.93;5.47
64861;PMS5003;62652;42.274;-71.436;2023-02-20T02:17:06;6.93;6.90;5.17
64861;PMS5003;62652;42.274;-71.436;2023-02-20T02:18:04;7.63;7.53;6.47
64861;PMS5003;62652;42.274;-71.436;2023-02-20T02:19:01;8.83;7.00;5.80
64861;PMS5003;62652;42.274;-71.436;2023-02-20T02:21:08;7.93;7.80;5.60
64861;PMS5003;62652;42.274;-71.436;2023-02-20T02:22:06;7.20;6.67;4.93
64861;PMS5003;62652;42.274;-71.436;2023-02-20T02:23:07;7.07;6.60;5.00
64861;PMS5003;62652;42.274;-71.436;2023-02-20T02:26:02;5.87;5.87;4.17
64861;PMS5003;62652;42.274;-71.436;2023-02-20T02:28:09;7.77;6.90;4.77
64861;PMS5003;62652;42.274;-71.436;2023-02-20T02:29:06;7.97;7.30;4.53
64861;PMS5003;62652;42.274;-71.436;2023-02-20T02:31:05;7.10;6.83;5.57
64861;PMS5003;62652;42.274;-71.436;2023-02-20T02:32:05;7.33;6.13;4.47
64861;PMS5003;62652;42.274;-71.436;2023-02-20T02:33:03;7.10;6.97;5.07
64861;PMS5003;62652;42.274;-71.436;2023-02-20T02:35:07;7.60;7.57;5.23
64861;PMS5003;62652;42.274;-71.436;2023-02-20T02:36:07;8.73;7.97;5.50
64861;PMS5003;62652;42.274;-71.436;2023-02-20T02:37:02;20.00;19.70;14.23
64861;PMS5003;62652;42.274;-71.436;2023-02-20T02:38:03;11.00;10.53;8.37
64861;PMS5003;62652;42.274;-71.436;2023-02-20T02:39:01;8.33;7.53;5.63
64861;PMS5003;62652;42.274;-71.436;2023-02-20T02:40:01;7.50;6.63;5.07
64861;PMS5003;62652;42.274;-71.436;2023-02-20T02:41:02;8.57;7.60;6.10
64861;PMS5003;62652;42.274;-71.436;2023-02-20T02:42:02;5.60;5.60;4.00
64861;PMS5003;62652;42.274;-71.436;2023-02-20T02:43:04;7.47;7.47;4.87
64861;PMS5003;62652;42.274;-71.436;2023-02-20T02:44:02;6.03;6.03;3.73
64861;PMS5003;62652;42.274;-71.436;2023-02-20T02:45:01;6.63;6.50;5.43
64861;PMS5003;62652;42.274;-71.436;2023-02-20T02:46:02;7.10;6.47;4.40
64861;PMS5003;62652;42.274;-71.436;2023-02-20T02:47:01;7.00;6.13;4.20
64861;PMS5003;62652;42.274;-71.436;2023-02-20T02:48:03;8.40;7.90;5.70
64861;PMS5003;62652;42.274;-71.436;2023-02-20T02:49:02;6.53;6.53;4.10
64861;PMS5003;62652;42.274;-71.436;2023-02-20T02:50:02;8.53;7.80;4.90
64861;PMS5003;62652;42.274;-71.436;2023-02-20T02:51:02;6.53;5.80;4.77
64861;PMS5003;62652;42.274;-71.436;2023-02-20T02:52:00;6.63;6.40;5.07
64861;PMS5003;62652;42.274;-71.436;2023-02-20T02:53:00;6.80;6.30;4.50
64861;PMS5003;62652;42.274;-71.436;2023-02-20T02:54:04;7.17;7.00;4.97
64861;PMS5003;62652;42.274;-71.436;2023-02-20T02:55:01;7.33;7.33;5.73
64861;PMS5003;62652;42.274;-71.436;2023-02-20T02:56:00;8.90;7.87;5.00
64861;PMS5003;62652;42.274;-71.436;2023-02-20T02:58:01;8.73;8.03;5.73
64861;PMS5003;62652;42.274;-71.436;2023-02-20T02:59:00;8.40;6.83;4.93
64861;PMS5003;62652;42.274;-71.436;2023-02-20T03:00:02;7.43;6.83;4.73
64861;PMS5003;62652;42.274;-71.436;2023-02-20T03:01:00;6.33;6.33;4.80
64861;PMS5003;62652;42.274;-71.436;2023-02-20T03:02:01;8.23;7.73;5.70
64861;PMS5003;62652;42.274;-71.436;2023-02-20T03:03:03;7.87;7.47;4.23
64861;PMS5003;62652;42.274;-71.436;2023-02-20T03:04:01;8.27;7.27;5.10
64861;PMS5003;62652;42.274;-71.436;2023-02-20T03:05:01;6.57;6.57;5.30
64861;PMS5003;62652;42.274;-71.436;2023-02-20T03:06:02;7.67;5.57;4.10
64861;PMS5003;62652;42.274;-71.436;2023-02-20T03:07:01;7.27;6.63;5.43
64861;PMS5003;62652;42.274;-71.436;2023-02-20T03:08:00;7.17;6.53;4.57
64861;PMS5003;62652;42.274;-71.436;2023-02-20T03:09:01;5.97;5.50;4.50
64861;PMS5003;62652;42.274;-71.436;2023-02-20T03:10:01;6.97;6.53;4.87
64861;PMS5003;62652;42.274;-71.436;2023-02-20T03:11:02;6.43;5.80;4.33
64861;PMS5003;62652;42.274;-71.436;2023-02-20T03:12:00;11.23;8.63;5.13
64861;PMS5003;62652;42.274;-71.436;2023-02-20T03:13:01;6.80;6.73;4.60
64861;PMS5003;62652;42.274;-71.436;2023-02-20T03:14:01;6.93;6.93;4.50
64861;PMS5003;62652;42.274;-71.436;2023-02-20T03:15:02;9.10;7.60;5.40
64861;PMS5003;62652;42.274;-71.436;2023-02-20T03:16:00;6.80;6.10;4.57
64861;PMS5003;62652;42.274;-71.436;2023-02-20T03:17:04;6.13;5.60;4.20
64861;PMS5003;62652;42.274;-71.436;2023-02-20T03:18:04;7.40;6.87;4.97
64861;PMS5003;62652;42.274;-71.436;2023-02-20T03:19:01;5.53;5.33;3.33
64861;PMS5003;62652;42.274;-71.436;2023-02-20T03:20:02;7.57;5.97;4.03
64861;PMS5003;62652;42.274;-71.436;2023-02-20T03:21:02;5.57;5.13;4.07
64861;PMS5003;62652;42.274;-71.436;2023-02-20T03:22:01;6.23;5.93;4.00
64861;PMS5003;62652;42.274;-71.436;2023-02-20T03:23:01;5.33;5.33;3.40
64861;PMS5003;62652;42.274;-71.436;2023-02-20T03:24:00;7.70;6.83;4.90
64861;PMS5003;62652;42.274;-71.436;2023-02-20T03:25:01;6.60;5.37;3.93
64861;PMS5003;62652;42.274;-71.436;2023-02-20T03:26:02;6.87;5.67;3.73
64861;PMS5003;62652;42.274;-71.436;2023-02-20T03:27:00;6.40;6.40;4.67
64861;PMS5003;62652;42.274;-71.436;2023-02-20T03:28:01;4.90;4.67;4.00
64861;PMS5003;62652;42.274;-71.436;2023-02-20T03:29:02;7.17;6.90;5.00
64861;PMS5003;62652;42.274;-71.436;2023-02-20T03:30:00;6.73;6.40;4.33
64861;PMS5003;62652;42.274;-71.436;2023-02-20T03:31:02;6.87;6.17;4.27
64861;PMS5003;62652;42.274;-71.436;2023-02-20T03:32:01;7.63;7.00;4.40
64861;PMS5003;62652;42.274;-71.436;2023-02-20T03:33:03;7.03;6.10;4.07
64861;PMS5003;62652;42.274;-71.436;2023-02-20T03:34:03;5.37;4.70;3.80
64861;PMS5003;62652;42.274;-71.436;2023-02-20T03:35:00;5.77;5.57;4.23
64861;PMS5003;62652;42.274;-71.436;2023-02-20T03:36:01;7.10;6.43;4.50
64861;PMS5003;62652;42.274;-71.436;2023-02-20T03:37:02;5.63;5.37;4.03
64861;PMS5003;62652;42.274;-71.436;2023-02-20T03:38:01;5.50;5.50;4.27
64861;PMS5003;62652;42.274;-71.436;2023-02-20T03:39:01;7.10;6.73;5.07
64861;PMS5003;62652;42.274;-71.436;2023-02-20T03:40:03;7.97;7.77;5.13
64861;PMS5003;62652;42.274;-71.436;2023-02-20T03:41:00;5.90;5.23;4.00
64861;PMS5003;62652;42.274;-71.436;2023-02-20T03:42:00;4.57;4.57;3.47
64861;PMS5003;62652;42.274;-71.436;2023-02-20T03:43:02;6.07;5.37;4.00
64861;PMS5003;62652;42.274;-71.436;2023-02-20T03:44:01;6.03;5.97;4.77
64861;PMS5003;62652;42.274;-71.436;2023-02-20T03:45:00;6.10;5.97;4.50
64861;PMS5003;62652;42.274;-71.436;2023-02-20T03:46:02;4.97;4.97;3.80
64861;PMS5003;62652;42.274;-71.436;2023-02-20T03:47:01;6.03;6.03;4.10
64861;PMS5003;62652;42.274;-71.436;2023-02-20T03:48:01;5.83;5.83;3.97
64861;PMS5003;62652;42.274;-71.436;2023-02-20T03:49:03;7.60;6.63;4.73
64861;PMS5003;62652;42.274;-71.436;2023-02-20T03:50:00;6.13;5.97;4.43
64861;PMS5003;62652;42.274;-71.436;2023-02-20T03:51:00;6.07;6.03;3.80
64861;PMS5003;62652;42.274;-71.436;2023-02-20T03:52:00;6.03;5.50;3.53
64861;PMS5003;62652;42.274;-71.436;2023-02-20T03:53:00;7.13;5.30;3.57
64861;PMS5003;62652;42.274;-71.436;2023-02-20T03:54:00;7.23;6.13;4.00
64861;PMS5003;62652;42.274;-71.436;2023-02-20T03:55:01;6.87;5.93;3.87
64861;PMS5003;62652;42.274;-71.436;2023-02-20T03:56:01;7.67;6.30;4.30
64861;PMS5003;62652;42.274;-71.436;2023-02-20T03:57:01;6.33;6.10;3.90
64861;PMS5003;62652;42.274;-71.436;2023-02-20T03:58:01;5.10;4.57;3.47
64861;PMS5003;62652;42.274;-71.436;2023-02-20T03:59:01;4.63;4.53;2.97
64861;PMS5003;62652;42.274;-71.436;2023-02-20T04:00:01;5.07;5.07;4.43
64861;PMS5003;62652;42.274;-71.436;2023-02-20T04:01:01;7.30;6.07;3.73
64861;PMS5003;62652;42.274;-71.436;2023-02-20T04:02:02;5.03;4.83;3.37
64861;PMS5003;62652;42.274;-71.436;2023-02-20T04:03:02;5.87;5.73;4.80
64861;PMS5003;62652;42.274;-71.436;2023-02-20T04:04:00;5.60;5.40;4.40
64861;PMS5003;62652;42.274;-71.436;2023-02-20T04:05:01;6.53;6.13;4.33
64861;PMS5003;62652;42.274;-71.436;2023-02-20T04:06:01;6.20;5.23;3.90
64861;PMS5003;62652;42.274;-71.436;2023-02-20T04:07:00;5.70;5.27;4.80
64861;PMS5003;62652;42.274;-71.436;2023-02-20T04:08:02;6.73;4.87;3.73
64861;PMS5003;62652;42.274;-71.436;2023-02-20T04:09:01;4.73;4.73;3.37
64861;PMS5003;62652;42.274;-71.436;2023-02-20T04:10:01;5.33;5.30;3.90
64861;PMS5003;62652;42.274;-71.436;2023-02-20T04:11:02;6.33;5.00;3.63
64861;PMS5003;62652;42.274;-71.436;2023-02-20T04:12:02;5.83;5.20;3.73
64861;PMS5003;62652;42.274;-71.436;2023-02-20T04:13:00;4.87;4.87;3.57
64861;PMS5003;62652;42.274;-71.436;2023-02-20T04:14:00;5.17;4.90;3.70
64861;PMS5003;62652;42.274;-71.436;2023-02-20T04:15:00;5.60;4.87;4.43
64861;PMS5003;62652;42.274;-71.436;2023-02-20T04:16:00;5.27;4.70;3.47
64861;PMS5003;62652;42.274;-71.436;2023-02-20T04:17:02;5.10;5.10;2.67
64861;PMS5003;62652;42.274;-71.436;2023-02-20T04:18:02;5.17;4.77;3.87
64861;PMS5003;62652;42.274;-71.436;2023-02-20T04:19:00;5.77;4.90;3.33
64861;PMS5003;62652;42.274;-71.436;2023-02-20T04:20:00;4.93;4.93;3.40
64861;PMS5003;62652;42.274;-71.436;2023-02-20T04:21:01;4.33;3.97;2.97
64861;PMS5003;62652;42.274;-71.436;2023-02-20T04:22:01;5.07;5.00;3.73
64861;PMS5003;62652;42.274;-71.436;2023-02-20T04:23:02;4.97;4.73;3.17
64861;PMS5003;62652;42.274;-71.436;2023-02-20T04:24:01;4.43;4.43;3.00
64861;PMS5003;62652;42.274;-71.436;2023-02-20T04:25:02;6.50;5.43;4.30
64861;PMS5003;62652;42.274;-71.436;2023-02-20T04:26:01;4.13;4.13;3.23
64861;PMS5003;62652;42.274;-71.436;2023-02-20T04:27:00;6.57;6.17;3.90
64861;PMS5003;62652;42.274;-71.436;2023-02-20T04:28:01;6.63;5.77;4.07
64861;PMS5003;62652;42.274;-71.436;2023-02-20T04:29:01;6.13;5.83;3.87
64861;PMS5003;62652;42.274;-71.436;2023-02-20T04:30:00;5.80;5.43;3.27
64861;PMS5003;62652;42.274;-71.436;2023-02-20T04:31:00;5.73;5.23;4.20
64861;PMS5003;62652;42.274;-71.436;2023-02-20T04:32:00;7.17;7.07;4.77
64861;PMS5003;62652;42.274;-71.436;2023-02-20T04:33:00;7.67;6.90;4.63
64861;PMS5003;62652;42.274;-71.436;2023-02-20T04:34:00;5.73;5.60;3.70
64861;PMS5003;62652;42.274;-71.436;2023-02-20T04:35:00;6.63;5.43;4.03
64861;PMS5003;62652;42.274;-71.436;2023-02-20T04:36:00;4.77;4.40;3.07
64861;PMS5003;62652;42.274;-71.436;2023-02-20T04:37:03;6.27;6.07;4.10
64861;PMS5003;62652;42.274;-71.436;2023-02-20T04:38:00;4.67;4.67;3.83
64861;PMS5003;62652;42.274;-71.436;2023-02-20T04:39:01;6.60;5.63;3.90
64861;PMS5003;62652;42.274;-71.436;2023-02-20T04:40:00;6.13;5.03;3.23
64861;PMS5003;62652;42.274;-71.436;2023-02-20T04:41:00;5.20;4.97;3.27
64861;PMS5003;62652;42.274;-71.436;2023-02-20T04:42:00;6.57;5.97;4.33
64861;PMS5003;62652;42.274;-71.436;2023-02-20T04:43:00;6.20;5.30;3.87
64861;PMS5003;62652;42.274;-71.436;2023-02-20T04:44:00;6.27;6.00;4.53
64861;PMS5003;62652;42.274;-71.436;2023-02-20T04:45:00;6.77;5.30;3.63
64861;PMS5003;62652;42.274;-71.436;2023-02-20T04:46:00;7.93;5.40;3.60
64861;PMS5003;62652;42.274;-71.436;2023-02-20T04:47:01;6.90;6.40;4.53
64861;PMS5003;62652;42.274;-71.436;2023-02-20T04:48:00;6.83;4.70;3.37
64861;PMS5003;62652;42.274;-71.436;2023-02-20T04:49:00;6.63;5.67;3.90
64861;PMS5003;62652;42.274;-71.436;2023-02-20T04:50:01;6.67;5.63;4.43
64861;PMS5003;62652;42.274;-71.436;2023-02-20T04:51:00;5.90;5.43;3.90
64861;PMS5003;62652;42.274;-71.436;2023-02-20T04:52:01;5.70;5.47;3.87
64861;PMS5003;62652;42.274;-71.436;2023-02-20T04:53:00;4.10;4.10;3.00
64861;PMS5003;62652;42.274;-71.436;2023-02-20T04:54:00;4.03;4.00;2.90
64861;PMS5003;62652;42.274;-71.436;2023-02-20T04:55:00;7.30;5.73;4.53
64861;PMS5003;62652;42.274;-71.436;2023-02-20T04:56:00;5.97;5.60;3.67
64861;PMS5003;62652;42.274;-71.436;2023-02-20T04:57:00;5.83;5.10;3.37
64861;PMS5003;62652;42.274;-71.436;2023-02-20T04:58:00;4.33;3.97;2.83
64861;PMS5003;62652;42.274;-71.436;2023-02-20T04:59:00;8.67;6.90;3.37
64861;PMS5003;62652;42.274;-71.436;2023-02-20T05:00:00;5.63;5.03;3.27
64861;PMS5003;62652;42.274;-71.436;2023-02-20T05:01:01;5.83;5.83;3.83
64861;PMS5003;62652;42.274;-71.436;2023-02-20T05:02:00;5.43;5.30;3.67
64861;PMS5003;62652;42.274;-71.436;2023-02-20T05:03:00;7.03;6.17;4.67
64861;PMS5003;62652;42.274;-71.436;2023-02-20T05:04:00;5.23;4.43;3.07
64861;PMS5003;62652;42.274;-71.436;2023-02-20T05:05:00;7.07;6.50;4.50
64861;PMS5003;62652;42.274;-71.436;2023-02-20T05:06:00;4.20;4.20;2.80
64861;PMS5003;62652;42.274;-71.436;2023-02-20T05:07:00;6.57;5.43;3.43
64861;PMS5003;62652;42.274;-71.436;2023-02-20T05:08:01;6.17;5.83;3.20
64861;PMS5003;62652;42.274;-71.436;2023-02-20T05:09:00;5.53;5.00;3.97
64861;PMS5003;62652;42.274;-71.436;2023-02-20T05:10:00;6.00;5.87;4.23
64861;PMS5003;62652;42.274;-71.436;2023-02-20T05:11:00;7.57;6.43;3.87
64861;PMS5003;62652;42.274;-71.436;2023-02-20T05:12:01;5.30;5.13;2.90
64861;PMS5003;62652;42.274;-71.436;2023-02-20T05:13:01;5.47;5.17;2.97
64861;PMS5003;62652;42.274;-71.436;2023-02-20T05:14:00;4.40;4.40;3.27
64861;PMS5003;62652;42.274;-71.436;2023-02-20T05:15:01;6.30;6.00;4.00
64861;PMS5003;62652;42.274;-71.436;2023-02-20T05:16:00;8.13;6.50;3.10
64861;PMS5003;62652;42.274;-71.436;2023-02-20T05:17:00;6.23;6.10;3.97
64861;PMS5003;62652;42.274;-71.436;2023-02-20T05:18:00;5.50;4.50;3.10
64861;PMS5003;62652;42.274;-71.436;2023-02-20T05:19:00;5.93;5.70;3.70
64861;PMS5003;62652;42.274;-71.436;2023-02-20T05:20:00;5.17;5.00;2.80
64861;PMS5003;62652;42.274;-71.436;2023-02-20T05:21:00;5.27;4.23;3.23
64861;PMS5003;62652;42.274;-71.436;2023-02-20T05:22:00;6.30;5.50;3.40
64861;PMS5003;62652;42.274;-71.436;2023-02-20T05:23:01;8.23;5.73;3.70
64861;PMS5003;62652;42.274;-71.436;2023-02-20T05:24:00;5.90;5.60;3.10
64861;PMS5003;62652;42.274;-71.436;2023-02-20T05:25:00;5.67;5.50;4.20
64861;PMS5003;62652;42.274;-71.436;2023-02-20T05:26:00;8.03;6.73;3.90
64861;PMS5003;62652;42.274;-71.436;2023-02-20T05:27:00;6.57;4.17;3.47
64861;PMS5003;62652;42.274;-71.436;2023-02-20T05:28:00;7.47;6.00;3.90
64861;PMS5003;62652;42.274;-71.436;2023-02-20T05:29:00;6.03;5.43;3.97
64861;PMS5003;62652;42.274;-71.436;2023-02-20T05:30:01;9.60;7.23;3.13
64861;PMS5003;62652;42.274;-71.436;2023-02-20T05:31:00;5.80;4.60;3.33
64861;PMS5003;62652;42.274;-71.436;2023-02-20T05:32:00;8.13;6.67;4.27
64861;PMS5003;62652;42.274;-71.436;2023-02-20T05:33:00;7.13;6.50;4.70
64861;PMS5003;62652;42.274;-71.436;2023-02-20T05:34:01;6.83;5.93;3.67
64861;PMS5003;62652;42.274;-71.436;2023-02-20T05:35:00;7.20;6.23;4.27
64861;PMS5003;62652;42.274;-71.436;2023-02-20T05:36:00;5.17;4.90;3.53
64861;PMS5003;62652;42.274;-71.436;2023-02-20T05:37:00;8.33;7.40;4.70
64861;PMS5003;62652;42.274;-71.436;2023-02-20T05:38:00;7.23;5.83;4.00
64861;PMS5003;62652;42.274;-71.436;2023-02-20T05:39:01;6.57;5.43;3.63
64861;PMS5003;62652;42.274;-71.436;2023-02-20T05:40:00;6.07;4.87;3.30
64861;PMS5003;62652;42.274;-71.436;2023-02-20T05:41:00;6.40;5.77;3.77
64861;PMS5003;62652;42.274;-71.436;2023-02-20T05:42:00;7.90;5.13;3.77
64861;PMS5003;62652;42.274;-71.436;2023-02-20T05:43:00;7.57;6.43;4.63
64861;PMS5003;62652;42.274;-71.436;2023-02-20T05:44:00;6.23;6.07;3.80
64861;PMS5003;62652;42.274;-71.436;2023-02-20T05:45:01;6.53;6.17;4.07
64861;PMS5003;62652;42.274;-71.436;2023-02-20T05:46:00;7.83;6.03;3.93
64861;PMS5003;62652;42.274;-71.436;2023-02-20T05:47:00;6.07;5.33;3.50
64861;PMS5003;62652;42.274;-71.436;2023-02-20T05:48:00;6.47;5.33;3.23
64861;PMS5003;62652;42.274;-71.436;2023-02-20T05:49:00;6.57;5.03;3.37
64861;PMS5003;62652;42.274;-71.436;2023-02-20T05:50:00;5.73;4.97;3.70
64861;PMS5003;62652;42.274;-71.436;2023-02-20T05:51:00;6.13;5.57;3.80
64861;PMS5003;62652;42.274;-71.436;2023-02-20T05:52:01;5.40;5.10;3.60
64861;PMS5003;62652;42.274;-71.436;2023-02-20T05:53:00;8.13;5.77;3.97
64861;PMS5003;62652;42.274;-71.436;2023-02-20T05:54:00;6.43;5.77;4.00
64861;PMS5003;62652;42.274;-71.436;2023-02-20T05:55:00;7.40;5.93;4.50